Terminal Aerodrome Forecast
Issued by NWS

Home | Current Version | Previous Version | Text Only | Print | Product List | Glossary On
Versions: 1 2 3 4 5 6 7 8 9 10 11 12 13 14 15 16 17 18 19 20 21 22
573
FTUS45 KRIW 212104 AAB
TAFRKS
TAF AMD
KRKS 212104Z 2121/2218 25009KT P6SM VCSH SCT010 OVC020
     FM212300 27014G24KT 5SM -SN SCT015 OVC025
     FM220400 27020G30KT P6SM SCT025 BKN040
     FM220700 25011KT P6SM SCT150=

USA.gov is the U.S. government's official web portal to all federal, state and local government web resources and services.